sensor_id;sensor_type;location;lat;lon;timestamp;temperature;humidity
38458;DHT22;24239;48.058;10.486;2023-06-14T00:01:40;10.60;91.70
38458;DHT22;24239;48.058;10.486;2023-06-14T00:04:06;10.50;92.00
38458;DHT22;24239;48.058;10.486;2023-06-14T00:06:35;10.50;92.00
38458;DHT22;24239;48.058;10.486;2023-06-14T00:09:02;10.50;92.10
38458;DHT22;24239;48.058;10.486;2023-06-14T00:11:28;10.50;92.30
38458;DHT22;24239;48.058;10.486;2023-06-14T00:13:55;10.40;92.40
38458;DHT22;24239;48.058;10.486;2023-06-14T00:16:23;10.40;92.90
38458;DHT22;24239;48.058;10.486;2023-06-14T00:18:51;10.30;93.10
38458;DHT22;24239;48.058;10.486;2023-06-14T00:21:17;10.20;93.30
38458;DHT22;24239;48.058;10.486;2023-06-14T00:23:42;10.20;93.60
38458;DHT22;24239;48.058;10.486;2023-06-14T00:26:09;10.20;94.00
38458;DHT22;24239;48.058;10.486;2023-06-14T00:28:36;10.20;94.20
38458;DHT22;24239;48.058;10.486;2023-06-14T00:31:02;10.10;94.20
38458;DHT22;24239;48.058;10.486;2023-06-14T00:33:27;10.10;94.50
38458;DHT22;24239;48.058;10.486;2023-06-14T00:35:53;10.00;94.50
38458;DHT22;24239;48.058;10.486;2023-06-14T00:38:19;10.00;94.60
38458;DHT22;24239;48.058;10.486;2023-06-14T00:40:46;10.00;94.70
38458;DHT22;24239;48.058;10.486;2023-06-14T00:43:12;9.90;95.30
38458;DHT22;24239;48.058;10.486;2023-06-14T00:45:38;9.90;95.80
38458;DHT22;24239;48.058;10.486;2023-06-14T00:48:04;9.80;95.90
38458;DHT22;24239;48.058;10.486;2023-06-14T00:50:31;9.70;95.90
38458;DHT22;24239;48.058;10.486;2023-06-14T00:53:00;9.80;96.30
38458;DHT22;24239;48.058;10.486;2023-06-14T00:55:26;9.60;96.10
38458;DHT22;24239;48.058;10.486;2023-06-14T00:57:53;9.60;96.70
38458;DHT22;24239;48.058;10.486;2023-06-14T01:00:19;9.60;96.90
38458;DHT22;24239;48.058;10.486;2023-06-14T01:02:45;9.60;97.20
38458;DHT22;24239;48.058;10.486;2023-06-14T01:05:11;9.60;97.40
38458;DHT22;24239;48.058;10.486;2023-06-14T01:15:33;9.50;99.00
38458;DHT22;24239;48.058;10.486;2023-06-14T01:18:00;9.50;99.40
38458;DHT22;24239;48.058;10.486;2023-06-14T01:20:31;9.40;99.20
38458;DHT22;24239;48.058;10.486;2023-06-14T01:22:57;9.40;99.70
38458;DHT22;24239;48.058;10.486;2023-06-14T01:25:23;9.30;99.60
38458;DHT22;24239;48.058;10.486;2023-06-14T01:27:56;9.30;99.90
38458;DHT22;24239;48.058;10.486;2023-06-14T01:30:24;9.30;99.90
38458;DHT22;24239;48.058;10.486;2023-06-14T01:32:55;9.30;99.90
38458;DHT22;24239;48.058;10.486;2023-06-14T01:35:24;9.30;99.90
38458;DHT22;24239;48.058;10.486;2023-06-14T01:37:50;9.20;99.90
38458;DHT22;24239;48.058;10.486;2023-06-14T01:40:17;9.20;99.90
38458;DHT22;24239;48.058;10.486;2023-06-14T01:42:43;9.20;99.90
38458;DHT22;24239;48.058;10.486;2023-06-14T01:45:11;9.20;99.90
38458;DHT22;24239;48.058;10.486;2023-06-14T01:47:40;9.10;99.90
38458;DHT22;24239;48.058;10.486;2023-06-14T01:50:06;9.10;99.90
38458;DHT22;24239;48.058;10.486;2023-06-14T01:52:33;9.10;99.90
38458;DHT22;24239;48.058;10.486;2023-06-14T01:55:01;9.10;99.90
38458;DHT22;24239;48.058;10.486;2023-06-14T01:57:27;9.00;99.90
38458;DHT22;24239;48.058;10.486;2023-06-14T01:59:53;9.00;99.90
38458;DHT22;24239;48.058;10.486;2023-06-14T02:02:20;9.00;99.90
38458;DHT22;24239;48.058;10.486;2023-06-14T02:04:48;9.00;99.90
38458;DHT22;24239;48.058;10.486;2023-06-14T02:07:15;8.90;99.90
38458;DHT22;24239;48.058;10.486;2023-06-14T02:09:44;8.90;99.90
38458;DHT22;24239;48.058;10.486;2023-06-14T02:12:09;8.90;99.90
38458;DHT22;24239;48.058;10.486;2023-06-14T02:14:36;8.90;99.90
38458;DHT22;24239;48.058;10.486;2023-06-14T02:17:04;8.90;99.90
38458;DHT22;24239;48.058;10.486;2023-06-14T02:19:31;8.90;99.90
38458;DHT22;24239;48.058;10.486;2023-06-14T02:21:58;8.80;99.90
38458;DHT22;24239;48.058;10.486;2023-06-14T02:24:27;8.80;99.90
38458;DHT22;24239;48.058;10.486;2023-06-14T02:26:57;8.80;99.90
38458;DHT22;24239;48.058;10.486;2023-06-14T02:29:23;8.80;99.90
38458;DHT22;24239;48.058;10.486;2023-06-14T02:31:49;8.90;99.90
38458;DHT22;24239;48.058;10.486;2023-06-14T02:34:15;8.70;99.90
38458;DHT22;24239;48.058;10.486;2023-06-14T02:36:45;8.60;99.90
38458;DHT22;24239;48.058;10.486;2023-06-14T02:39:13;8.60;99.90
38458;DHT22;24239;48.058;10.486;2023-06-14T02:41:39;8.60;99.90
38458;DHT22;24239;48.058;10.486;2023-06-14T02:44:05;8.50;99.90
38458;DHT22;24239;48.058;10.486;2023-06-14T02:46:31;8.60;99.90
38458;DHT22;24239;48.058;10.486;2023-06-14T02:48:57;8.60;99.90
38458;DHT22;24239;48.058;10.486;2023-06-14T02:51:22;8.50;99.90
38458;DHT22;24239;48.058;10.486;2023-06-14T02:53:49;8.50;99.90
38458;DHT22;24239;48.058;10.486;2023-06-14T02:56:16;8.50;99.90
38458;DHT22;24239;48.058;10.486;2023-06-14T02:58:42;8.50;99.90
38458;DHT22;24239;48.058;10.486;2023-06-14T03:01:08;8.40;99.90
38458;DHT22;24239;48.058;10.486;2023-06-14T03:03:39;8.30;99.90
38458;DHT22;24239;48.058;10.486;2023-06-14T03:06:07;8.30;99.90
38458;DHT22;24239;48.058;10.486;2023-06-14T03:08:33;8.30;99.90
38458;DHT22;24239;48.058;10.486;2023-06-14T03:11:04;8.20;99.90
38458;DHT22;24239;48.058;10.486;2023-06-14T03:13:31;8.20;99.90
38458;DHT22;24239;48.058;10.486;2023-06-14T03:16:02;8.00;99.90
38458;DHT22;24239;48.058;10.486;2023-06-14T03:18:29;8.20;99.90
38458;DHT22;24239;48.058;10.486;2023-06-14T03:21:03;8.00;99.90
38458;DHT22;24239;48.058;10.486;2023-06-14T03:23:34;8.10;99.90
38458;DHT22;24239;48.058;10.486;2023-06-14T03:26:01;8.00;99.90
38458;DHT22;24239;48.058;10.486;2023-06-14T03:28:27;8.10;99.90
38458;DHT22;24239;48.058;10.486;2023-06-14T03:30:53;8.00;99.90
38458;DHT22;24239;48.058;10.486;2023-06-14T03:33:19;8.00;99.90
38458;DHT22;24239;48.058;10.486;2023-06-14T03:35:44;8.10;99.90
38458;DHT22;24239;48.058;10.486;2023-06-14T03:38:10;8.10;99.90
38458;DHT22;24239;48.058;10.486;2023-06-14T03:40:38;8.00;99.90
38458;DHT22;24239;48.058;10.486;2023-06-14T03:43:04;8.00;99.90
38458;DHT22;24239;48.058;10.486;2023-06-14T03:45:30;8.00;99.90
38458;DHT22;24239;48.058;10.486;2023-06-14T03:47:58;8.10;99.90
38458;DHT22;24239;48.058;10.486;2023-06-14T03:50:26;8.10;99.90
38458;DHT22;24239;48.058;10.486;2023-06-14T03:52:52;8.20;99.90
38458;DHT22;24239;48.058;10.486;2023-06-14T03:55:18;8.30;99.90
38458;DHT22;24239;48.058;10.486;2023-06-14T03:57:45;8.20;99.90
38458;DHT22;24239;48.058;10.486;2023-06-14T04:00:11;8.30;99.90
38458;DHT22;24239;48.058;10.486;2023-06-14T04:02:38;8.40;99.90
38458;DHT22;24239;48.058;10.486;2023-06-14T04:05:03;8.60;99.90
38458;DHT22;24239;48.058;10.486;2023-06-14T04:07:30;8.80;99.90
38458;DHT22;24239;48.058;10.486;2023-06-14T04:09:56;9.20;99.90
38458;DHT22;24239;48.058;10.486;2023-06-14T04:12:21;9.80;99.90
38458;DHT22;24239;48.058;10.486;2023-06-14T04:14:47;10.70;99.90
38458;DHT22;24239;48.058;10.486;2023-06-14T04:17:14;11.80;99.90
38458;DHT22;24239;48.058;10.486;2023-06-14T04:19:41;12.70;99.90
38458;DHT22;24239;48.058;10.486;2023-06-14T04:22:11;13.50;98.50
38458;DHT22;24239;48.058;10.486;2023-06-14T04:24:37;14.30;96.60
38458;DHT22;24239;48.058;10.486;2023-06-14T04:27:03;14.80;95.40
38458;DHT22;24239;48.058;10.486;2023-06-14T04:29:30;15.40;93.90
38458;DHT22;24239;48.058;10.486;2023-06-14T04:31:56;16.10;92.80
38458;DHT22;24239;48.058;10.486;2023-06-14T04:34:26;16.60;91.90
38458;DHT22;24239;48.058;10.486;2023-06-14T04:36:58;17.20;90.90
38458;DHT22;24239;48.058;10.486;2023-06-14T04:39:26;17.70;89.10
38458;DHT22;24239;48.058;10.486;2023-06-14T04:41:52;17.90;88.90
38458;DHT22;24239;48.058;10.486;2023-06-14T04:44:20;18.10;87.00
38458;DHT22;24239;48.058;10.486;2023-06-14T04:46:50;18.30;86.00
38458;DHT22;24239;48.058;10.486;2023-06-14T04:49:17;18.60;85.50
38458;DHT22;24239;48.058;10.486;2023-06-14T04:51:43;18.70;84.60
38458;DHT22;24239;48.058;10.486;2023-06-14T04:54:09;19.20;84.10
38458;DHT22;24239;48.058;10.486;2023-06-14T04:56:43;19.60;83.10
38458;DHT22;24239;48.058;10.486;2023-06-14T04:59:10;19.70;80.80
38458;DHT22;24239;48.058;10.486;2023-06-14T05:01:40;20.20;81.00
38458;DHT22;24239;48.058;10.486;2023-06-14T05:04:06;20.50;80.80
38458;DHT22;24239;48.058;10.486;2023-06-14T05:06:33;20.70;80.20
38458;DHT22;24239;48.058;10.486;2023-06-14T05:08:58;21.00;79.90
38458;DHT22;24239;48.058;10.486;2023-06-14T05:11:24;21.20;80.00
38458;DHT22;24239;48.058;10.486;2023-06-14T05:13:56;21.10;79.30
38458;DHT22;24239;48.058;10.486;2023-06-14T05:16:23;21.20;79.10
38458;DHT22;24239;48.058;10.486;2023-06-14T05:18:52;20.90;79.30
38458;DHT22;24239;48.058;10.486;2023-06-14T05:21:20;20.70;79.20
38458;DHT22;24239;48.058;10.486;2023-06-14T05:23:46;20.80;79.20
38458;DHT22;24239;48.058;10.486;2023-06-14T05:26:16;20.80;79.90
38458;DHT22;24239;48.058;10.486;2023-06-14T05:28:49;20.80;78.10
38458;DHT22;24239;48.058;10.486;2023-06-14T05:31:16;20.90;77.20
38458;DHT22;24239;48.058;10.486;2023-06-14T05:33:43;21.10;76.20
38458;DHT22;24239;48.058;10.486;2023-06-14T05:36:10;20.90;76.40
38458;DHT22;24239;48.058;10.486;2023-06-14T05:38:37;20.70;76.70
38458;DHT22;24239;48.058;10.486;2023-06-14T05:41:05;20.70;77.50
38458;DHT22;24239;48.058;10.486;2023-06-14T05:43:33;20.40;77.10
38458;DHT22;24239;48.058;10.486;2023-06-14T05:45:59;20.10;78.90
38458;DHT22;24239;48.058;10.486;2023-06-14T05:48:24;19.60;80.20
38458;DHT22;24239;48.058;10.486;2023-06-14T05:50:50;19.40;79.70
38458;DHT22;24239;48.058;10.486;2023-06-14T05:53:16;19.30;80.10
38458;DHT22;24239;48.058;10.486;2023-06-14T05:55:43;19.60;81.10
38458;DHT22;24239;48.058;10.486;2023-06-14T05:58:10;20.00;79.30
38458;DHT22;24239;48.058;10.486;2023-06-14T06:00:36;20.10;78.70
38458;DHT22;24239;48.058;10.486;2023-06-14T06:03:03;20.50;78.80
38458;DHT22;24239;48.058;10.486;2023-06-14T06:05:33;20.60;77.50
38458;DHT22;24239;48.058;10.486;2023-06-14T06:08:01;20.50;78.20
38458;DHT22;24239;48.058;10.486;2023-06-14T06:10:28;20.60;78.40
38458;DHT22;24239;48.058;10.486;2023-06-14T06:12:54;20.40;79.20
38458;DHT22;24239;48.058;10.486;2023-06-14T06:15:20;20.50;79.50
38458;DHT22;24239;48.058;10.486;2023-06-14T06:17:45;20.70;79.40
38458;DHT22;24239;48.058;10.486;2023-06-14T06:20:12;20.40;79.30
38458;DHT22;24239;48.058;10.486;2023-06-14T06:22:38;19.70;80.60
38458;DHT22;24239;48.058;10.486;2023-06-14T06:25:04;19.00;82.50
38458;DHT22;24239;48.058;10.486;2023-06-14T06:27:31;18.20;84.10
38458;DHT22;24239;48.058;10.486;2023-06-14T06:29:57;17.50;85.80
38458;DHT22;24239;48.058;10.486;2023-06-14T06:32:22;17.20;87.80
38458;DHT22;24239;48.058;10.486;2023-06-14T06:34:51;16.80;87.70
38458;DHT22;24239;48.058;10.486;2023-06-14T06:37:17;16.50;89.00
38458;DHT22;24239;48.058;10.486;2023-06-14T06:39:42;16.40;89.90
38458;DHT22;24239;48.058;10.486;2023-06-14T06:42:09;16.20;89.90
38458;DHT22;24239;48.058;10.486;2023-06-14T06:44:35;16.10;90.20
38458;DHT22;24239;48.058;10.486;2023-06-14T06:47:02;16.10;90.20
38458;DHT22;24239;48.058;10.486;2023-06-14T06:49:29;16.10;90.10
38458;DHT22;24239;48.058;10.486;2023-06-14T06:52:04;16.10;90.30
38458;DHT22;24239;48.058;10.486;2023-06-14T06:54:32;16.10;90.80
38458;DHT22;24239;48.058;10.486;2023-06-14T06:57:00;16.20;90.70
38458;DHT22;24239;48.058;10.486;2023-06-14T06:59:26;16.20;90.80
38458;DHT22;24239;48.058;10.486;2023-06-14T07:01:53;16.20;90.90
38458;DHT22;24239;48.058;10.486;2023-06-14T07:04:19;16.30;90.40
38458;DHT22;24239;48.058;10.486;2023-06-14T07:06:48;16.40;90.30
38458;DHT22;24239;48.058;10.486;2023-06-14T07:09:15;16.50;90.00
38458;DHT22;24239;48.058;10.486;2023-06-14T07:11:43;16.60;88.60
38458;DHT22;24239;48.058;10.486;2023-06-14T07:14:12;16.70;87.40
38458;DHT22;24239;48.058;10.486;2023-06-14T07:16:40;16.80;85.80
38458;DHT22;24239;48.058;10.486;2023-06-14T07:19:06;16.80;87.10
38458;DHT22;24239;48.058;10.486;2023-06-14T07:21:32;16.90;87.40
38458;DHT22;24239;48.058;10.486;2023-06-14T07:23:58;16.90;85.00
38458;DHT22;24239;48.058;10.486;2023-06-14T07:26:23;16.90;86.10
38458;DHT22;24239;48.058;10.486;2023-06-14T07:28:51;16.90;85.00
38458;DHT22;24239;48.058;10.486;2023-06-14T07:31:18;16.90;85.20
38458;DHT22;24239;48.058;10.486;2023-06-14T07:33:44;17.00;85.70
38458;DHT22;24239;48.058;10.486;2023-06-14T07:36:10;17.10;85.50
38458;DHT22;24239;48.058;10.486;2023-06-14T07:38:37;17.20;84.80
38458;DHT22;24239;48.058;10.486;2023-06-14T07:41:04;17.30;84.70
38458;DHT22;24239;48.058;10.486;2023-06-14T07:43:29;17.50;84.20
38458;DHT22;24239;48.058;10.486;2023-06-14T07:45:56;17.60;84.20
38458;DHT22;24239;48.058;10.486;2023-06-14T07:48:24;17.60;84.20
38458;DHT22;24239;48.058;10.486;2023-06-14T07:50:50;17.60;83.40
38458;DHT22;24239;48.058;10.486;2023-06-14T07:53:17;17.70;84.30
38458;DHT22;24239;48.058;10.486;2023-06-14T07:55:42;17.80;82.90
38458;DHT22;24239;48.058;10.486;2023-06-14T07:58:08;17.90;85.00
38458;DHT22;24239;48.058;10.486;2023-06-14T08:00:34;18.10;84.20
38458;DHT22;24239;48.058;10.486;2023-06-14T08:03:00;18.20;85.00
38458;DHT22;24239;48.058;10.486;2023-06-14T08:05:26;18.20;81.70
38458;DHT22;24239;48.058;10.486;2023-06-14T08:07:53;18.30;83.70
38458;DHT22;24239;48.058;10.486;2023-06-14T08:10:21;18.30;84.40
38458;DHT22;24239;48.058;10.486;2023-06-14T08:12:47;18.50;82.50
38458;DHT22;24239;48.058;10.486;2023-06-14T08:15:15;18.50;82.20
38458;DHT22;24239;48.058;10.486;2023-06-14T08:17:44;18.50;83.40
38458;DHT22;24239;48.058;10.486;2023-06-14T08:20:11;18.60;81.20
38458;DHT22;24239;48.058;10.486;2023-06-14T08:22:39;18.70;79.10
38458;DHT22;24239;48.058;10.486;2023-06-14T08:25:07;18.80;78.60
38458;DHT22;24239;48.058;10.486;2023-06-14T08:27:33;18.90;76.40
38458;DHT22;24239;48.058;10.486;2023-06-14T08:30:00;19.10;81.50
38458;DHT22;24239;48.058;10.486;2023-06-14T08:32:28;19.20;79.60
38458;DHT22;24239;48.058;10.486;2023-06-14T08:34:53;19.30;79.00
38458;DHT22;24239;48.058;10.486;2023-06-14T08:37:19;19.20;76.20
38458;DHT22;24239;48.058;10.486;2023-06-14T08:39:46;19.30;74.80
38458;DHT22;24239;48.058;10.486;2023-06-14T08:42:12;19.30;74.30
38458;DHT22;24239;48.058;10.486;2023-06-14T08:44:39;19.30;75.00
38458;DHT22;24239;48.058;10.486;2023-06-14T08:47:05;19.40;75.90
38458;DHT22;24239;48.058;10.486;2023-06-14T08:49:34;19.50;75.90
38458;DHT22;24239;48.058;10.486;2023-06-14T08:52:01;19.60;75.10
38458;DHT22;24239;48.058;10.486;2023-06-14T08:54:27;19.70;73.20
38458;DHT22;24239;48.058;10.486;2023-06-14T08:57:00;19.70;73.00
38458;DHT22;24239;48.058;10.486;2023-06-14T08:59:25;19.50;75.40
38458;DHT22;24239;48.058;10.486;2023-06-14T09:01:52;19.60;76.80
38458;DHT22;24239;48.058;10.486;2023-06-14T09:04:23;19.70;75.80
38458;DHT22;24239;48.058;10.486;2023-06-14T09:06:51;19.90;77.10
38458;DHT22;24239;48.058;10.486;2023-06-14T09:09:20;20.00;75.80
38458;DHT22;24239;48.058;10.486;2023-06-14T09:11:49;19.90;75.70
38458;DHT22;24239;48.058;10.486;2023-06-14T09:14:15;20.00;75.00
38458;DHT22;24239;48.058;10.486;2023-06-14T09:16:41;20.00;74.60
38458;DHT22;24239;48.058;10.486;2023-06-14T09:19:06;20.00;75.40
38458;DHT22;24239;48.058;10.486;2023-06-14T09:21:35;20.10;76.00
38458;DHT22;24239;48.058;10.486;2023-06-14T09:24:04;20.10;75.50
38458;DHT22;24239;48.058;10.486;2023-06-14T09:26:30;20.10;74.30
38458;DHT22;24239;48.058;10.486;2023-06-14T09:28:55;20.20;74.10
38458;DHT22;24239;48.058;10.486;2023-06-14T09:31:21;20.10;73.70
38458;DHT22;24239;48.058;10.486;2023-06-14T09:33:48;20.30;74.20
38458;DHT22;24239;48.058;10.486;2023-06-14T09:36:16;20.30;74.40
38458;DHT22;24239;48.058;10.486;2023-06-14T09:39:04;20.30;73.90
38458;DHT22;24239;48.058;10.486;2023-06-14T09:41:33;20.40;71.90
38458;DHT22;24239;48.058;10.486;2023-06-14T09:44:01;20.50;72.10
38458;DHT22;24239;48.058;10.486;2023-06-14T09:46:28;20.60;72.40
38458;DHT22;24239;48.058;10.486;2023-06-14T09:48:55;20.70;72.60
38458;DHT22;24239;48.058;10.486;2023-06-14T09:51:22;20.70;73.30
38458;DHT22;24239;48.058;10.486;2023-06-14T09:53:48;20.70;72.00
38458;DHT22;24239;48.058;10.486;2023-06-14T09:56:16;20.70;71.70
38458;DHT22;24239;48.058;10.486;2023-06-14T09:58:48;20.90;72.30
38458;DHT22;24239;48.058;10.486;2023-06-14T10:01:17;20.90;71.10
38458;DHT22;24239;48.058;10.486;2023-06-14T10:03:47;20.90;71.50
38458;DHT22;24239;48.058;10.486;2023-06-14T10:06:15;21.00;69.80
38458;DHT22;24239;48.058;10.486;2023-06-14T10:08:43;21.00;70.00
38458;DHT22;24239;48.058;10.486;2023-06-14T10:11:11;20.80;71.50
38458;DHT22;24239;48.058;10.486;2023-06-14T10:13:38;20.90;70.30
38458;DHT22;24239;48.058;10.486;2023-06-14T10:16:12;21.00;70.90
38458;DHT22;24239;48.058;10.486;2023-06-14T10:23:47;21.20;71.10
38458;DHT22;24239;48.058;10.486;2023-06-14T10:26:20;21.30;70.90
38458;DHT22;24239;48.058;10.486;2023-06-14T10:28:56;21.30;71.10
38458;DHT22;24239;48.058;10.486;2023-06-14T10:31:22;21.30;70.40
38458;DHT22;24239;48.058;10.486;2023-06-14T10:33:49;21.30;69.50
38458;DHT22;24239;48.058;10.486;2023-06-14T10:38:56;21.30;70.10
38458;DHT22;24239;48.058;10.486;2023-06-14T10:41:22;21.40;72.80
38458;DHT22;24239;48.058;10.486;2023-06-14T10:43:49;21.60;70.60
38458;DHT22;24239;48.058;10.486;2023-06-14T10:46:28;21.70;70.20
38458;DHT22;24239;48.058;10.486;2023-06-14T10:48:56;21.60;69.40
38458;DHT22;24239;48.058;10.486;2023-06-14T10:51:24;21.70;69.20
38458;DHT22;24239;48.058;10.486;2023-06-14T10:53:50;21.70;69.30
38458;DHT22;24239;48.058;10.486;2023-06-14T10:56:22;21.70;69.20
38458;DHT22;24239;48.058;10.486;2023-06-14T10:58:49;21.70;70.10
38458;DHT22;24239;48.058;10.486;2023-06-14T11:01:16;21.80;70.40
38458;DHT22;24239;48.058;10.486;2023-06-14T11:03:49;21.60;68.80
38458;DHT22;24239;48.058;10.486;2023-06-14T11:06:16;21.60;67.90
38458;DHT22;24239;48.058;10.486;2023-06-14T11:11:17;21.80;69.60
38458;DHT22;24239;48.058;10.486;2023-06-14T11:13:46;21.90;68.90
38458;DHT22;24239;48.058;10.486;2023-06-14T11:16:15;21.70;68.40
38458;DHT22;24239;48.058;10.486;2023-06-14T11:18:41;21.90;68.70
38458;DHT22;24239;48.058;10.486;2023-06-14T11:21:08;21.90;68.60
38458;DHT22;24239;48.058;10.486;2023-06-14T11:23:34;22.00;68.60
38458;DHT22;24239;48.058;10.486;2023-06-14T11:26:00;22.10;68.40
38458;DHT22;24239;48.058;10.486;2023-06-14T11:28:35;22.20;69.60
38458;DHT22;24239;48.058;10.486;2023-06-14T11:31:03;22.30;68.70
38458;DHT22;24239;48.058;10.486;2023-06-14T11:33:29;22.20;68.10
38458;DHT22;24239;48.058;10.486;2023-06-14T11:35:56;22.30;68.50
38458;DHT22;24239;48.058;10.486;2023-06-14T11:38:21;22.30;68.00
38458;DHT22;24239;48.058;10.486;2023-06-14T11:40:48;22.30;67.20
38458;DHT22;24239;48.058;10.486;2023-06-14T11:43:16;22.10;66.90
38458;DHT22;24239;48.058;10.486;2023-06-14T11:45:42;22.10;67.30
38458;DHT22;24239;48.058;10.486;2023-06-14T11:48:08;22.00;67.10
38458;DHT22;24239;48.058;10.486;2023-06-14T11:50:33;21.90;66.90
38458;DHT22;24239;48.058;10.486;2023-06-14T11:53:03;22.00;66.60
38458;DHT22;24239;48.058;10.486;2023-06-14T11:55:39;22.20;67.20
38458;DHT22;24239;48.058;10.486;2023-06-14T11:58:06;22.40;67.10
38458;DHT22;24239;48.058;10.486;2023-06-14T12:00:36;22.30;67.00
38458;DHT22;24239;48.058;10.486;2023-06-14T12:03:02;22.40;66.50
38458;DHT22;24239;48.058;10.486;2023-06-14T12:05:30;22.50;66.60
38458;DHT22;24239;48.058;10.486;2023-06-14T12:07:58;22.40;65.70
38458;DHT22;24239;48.058;10.486;2023-06-14T12:10:26;22.50;67.40
38458;DHT22;24239;48.058;10.486;2023-06-14T12:12:56;22.40;66.30
38458;DHT22;24239;48.058;10.486;2023-06-14T12:15:21;22.40;66.80
38458;DHT22;24239;48.058;10.486;2023-06-14T12:17:47;22.40;66.50
38458;DHT22;24239;48.058;10.486;2023-06-14T12:20:13;22.30;65.90
38458;DHT22;24239;48.058;10.486;2023-06-14T12:22:51;22.40;66.20
38458;DHT22;24239;48.058;10.486;2023-06-14T12:25:29;22.60;68.10
38458;DHT22;24239;48.058;10.486;2023-06-14T12:28:03;22.80;65.90
38458;DHT22;24239;48.058;10.486;2023-06-14T12:30:29;22.90;65.80
38458;DHT22;24239;48.058;10.486;2023-06-14T12:32:55;23.00;66.30
38458;DHT22;24239;48.058;10.486;2023-06-14T12:35:21;22.80;64.60
38458;DHT22;24239;48.058;10.486;2023-06-14T12:37:47;22.40;64.90
38458;DHT22;24239;48.058;10.486;2023-06-14T12:40:13;22.30;64.90
38458;DHT22;24239;48.058;10.486;2023-06-14T12:42:39;22.20;65.30
38458;DHT22;24239;48.058;10.486;2023-06-14T12:45:06;22.20;65.60
38458;DHT22;24239;48.058;10.486;2023-06-14T12:47:33;22.40;66.40
38458;DHT22;24239;48.058;10.486;2023-06-14T12:50:01;22.70;66.20
38458;DHT22;24239;48.058;10.486;2023-06-14T12:52:27;23.10;65.70
38458;DHT22;24239;48.058;10.486;2023-06-14T12:54:53;23.30;64.20
38458;DHT22;24239;48.058;10.486;2023-06-14T12:57:20;23.50;64.60
38458;DHT22;24239;48.058;10.486;2023-06-14T12:59:48;23.60;64.20
38458;DHT22;24239;48.058;10.486;2023-06-14T13:02:17;23.60;65.60
38458;DHT22;24239;48.058;10.486;2023-06-14T13:04:43;23.60;64.90
38458;DHT22;24239;48.058;10.486;2023-06-14T13:07:08;23.40;64.70
38458;DHT22;24239;48.058;10.486;2023-06-14T13:09:36;23.30;65.10
38458;DHT22;24239;48.058;10.486;2023-06-14T13:12:03;23.30;63.80
38458;DHT22;24239;48.058;10.486;2023-06-14T13:14:28;23.30;65.50
38458;DHT22;24239;48.058;10.486;2023-06-14T13:16:55;23.10;64.00
38458;DHT22;24239;48.058;10.486;2023-06-14T13:19:23;22.80;64.80
38458;DHT22;24239;48.058;10.486;2023-06-14T13:21:48;22.70;65.90
38458;DHT22;24239;48.058;10.486;2023-06-14T13:24:14;22.70;66.40
38458;DHT22;24239;48.058;10.486;2023-06-14T13:26:40;22.70;67.00
38458;DHT22;24239;48.058;10.486;2023-06-14T13:29:07;22.70;65.50
38458;DHT22;24239;48.058;10.486;2023-06-14T13:31:33;22.90;65.50
38458;DHT22;24239;48.058;10.486;2023-06-14T13:34:00;23.00;64.80
38458;DHT22;24239;48.058;10.486;2023-06-14T13:36:26;23.10;64.50
38458;DHT22;24239;48.058;10.486;2023-06-14T13:38:53;23.10;65.10
38458;DHT22;24239;48.058;10.486;2023-06-14T13:41:22;23.40;65.50
38458;DHT22;24239;48.058;10.486;2023-06-14T13:43:48;23.40;65.20
38458;DHT22;24239;48.058;10.486;2023-06-14T13:46:13;23.40;65.60
38458;DHT22;24239;48.058;10.486;2023-06-14T13:48:39;23.30;65.20
38458;DHT22;24239;48.058;10.486;2023-06-14T13:51:06;23.20;65.60
38458;DHT22;24239;48.058;10.486;2023-06-14T13:53:32;23.00;64.90
38458;DHT22;24239;48.058;10.486;2023-06-14T13:55:58;22.80;65.30
38458;DHT22;24239;48.058;10.486;2023-06-14T13:58:24;22.80;64.50
38458;DHT22;24239;48.058;10.486;2023-06-14T14:00:51;22.80;65.60
38458;DHT22;24239;48.058;10.486;2023-06-14T14:03:19;22.80;65.00
38458;DHT22;24239;48.058;10.486;2023-06-14T14:05:46;22.90;65.70
38458;DHT22;24239;48.058;10.486;2023-06-14T14:08:14;23.00;64.90
38458;DHT22;24239;48.058;10.486;2023-06-14T14:10:39;23.00;64.90
38458;DHT22;24239;48.058;10.486;2023-06-14T14:13:05;23.10;65.00
38458;DHT22;24239;48.058;10.486;2023-06-14T14:15:32;23.30;64.40
38458;DHT22;24239;48.058;10.486;2023-06-14T14:18:02;23.50;64.60
38458;DHT22;24239;48.058;10.486;2023-06-14T14:20:29;23.70;65.80
38458;DHT22;24239;48.058;10.486;2023-06-14T14:22:57;24.00;65.00
38458;DHT22;24239;48.058;10.486;2023-06-14T14:25:22;24.40;64.80
38458;DHT22;24239;48.058;10.486;2023-06-14T14:27:50;24.70;64.90
38458;DHT22;24239;48.058;10.486;2023-06-14T14:30:18;24.80;63.90
38458;DHT22;24239;48.058;10.486;2023-06-14T14:32:45;24.70;64.10
38458;DHT22;24239;48.058;10.486;2023-06-14T14:35:11;24.70;63.10
38458;DHT22;24239;48.058;10.486;2023-06-14T14:37:40;24.50;62.90
38458;DHT22;24239;48.058;10.486;2023-06-14T14:40:05;24.10;62.70
38458;DHT22;24239;48.058;10.486;2023-06-14T14:42:33;23.90;63.20
38458;DHT22;24239;48.058;10.486;2023-06-14T14:45:01;23.40;63.20
38458;DHT22;24239;48.058;10.486;2023-06-14T14:47:29;23.20;64.40
38458;DHT22;24239;48.058;10.486;2023-06-14T14:49:56;23.30;65.80
38458;DHT22;24239;48.058;10.486;2023-06-14T14:52:22;23.80;66.30
38458;DHT22;24239;48.058;10.486;2023-06-14T14:54:51;23.90;63.10
38458;DHT22;24239;48.058;10.486;2023-06-14T14:57:18;24.10;64.00
38458;DHT22;24239;48.058;10.486;2023-06-14T14:59:45;23.90;64.10
38458;DHT22;24239;48.058;10.486;2023-06-14T15:02:12;24.10;64.40
38458;DHT22;24239;48.058;10.486;2023-06-14T15:04:37;23.90;62.70
38458;DHT22;24239;48.058;10.486;2023-06-14T15:07:03;23.80;63.00
38458;DHT22;24239;48.058;10.486;2023-06-14T15:09:28;23.50;63.30
38458;DHT22;24239;48.058;10.486;2023-06-14T15:11:55;23.40;64.10
38458;DHT22;24239;48.058;10.486;2023-06-14T15:14:20;23.30;63.90
38458;DHT22;24239;48.058;10.486;2023-06-14T15:16:47;23.00;63.50
38458;DHT22;24239;48.058;10.486;2023-06-14T15:19:14;23.00;63.40
38458;DHT22;24239;48.058;10.486;2023-06-14T15:21:41;23.30;63.50
38458;DHT22;24239;48.058;10.486;2023-06-14T15:24:07;23.40;63.30
38458;DHT22;24239;48.058;10.486;2023-06-14T15:26:33;23.80;63.30
38458;DHT22;24239;48.058;10.486;2023-06-14T15:28:58;23.90;61.60
38458;DHT22;24239;48.058;10.486;2023-06-14T15:31:24;24.20;64.10
38458;DHT22;24239;48.058;10.486;2023-06-14T15:33:53;24.60;62.90
38458;DHT22;24239;48.058;10.486;2023-06-14T15:36:18;25.00;61.20
38458;DHT22;24239;48.058;10.486;2023-06-14T15:38:45;25.30;62.00